createdAt,value
2022-08-26T00:01:38.733Z,3.25
2022-08-26T00:04:06.229Z,2.80
2022-08-26T00:06:34.027Z,3.03
2022-08-26T00:09:01.353Z,3.03
2022-08-26T00:11:28.635Z,3.03
2022-08-26T00:13:56.703Z,3.00
2022-08-26T00:16:25.101Z,3.40
2022-08-26T00:18:53.054Z,2.83
2022-08-26T00:21:20.569Z,2.97
2022-08-26T00:23:48.467Z,3.08
2022-08-26T00:26:16.002Z,2.65
2022-08-26T00:28:43.184Z,2.90
2022-08-26T00:31:11.099Z,2.75
2022-08-26T00:33:38.902Z,3.15
2022-08-26T00:36:06.769Z,3.08
2022-08-26T00:38:34.077Z,2.55
2022-08-26T00:41:01.582Z,3.22
2022-08-26T00:43:31.095Z,2.72
2022-08-26T00:46:25.575Z,3.42
2022-08-26T00:48:54.777Z,2.80
2022-08-26T00:51:23.770Z,2.80
2022-08-26T00:54:06.258Z,2.60
2022-08-26T00:56:38.176Z,2.60
2022-08-26T00:59:07.946Z,2.30
2022-08-26T01:01:36.045Z,2.38
2022-08-26T01:04:03.560Z,2.40
2022-08-26T01:06:31.272Z,2.13
2022-08-26T01:08:58.469Z,2.13
2022-08-26T01:11:26.080Z,2.40
2022-08-26T01:13:55.436Z,2.25
2022-08-26T01:16:25.747Z,2.17
2022-08-26T01:18:54.891Z,2.17
2022-08-26T01:21:22.219Z,2.28
2022-08-26T01:23:50.888Z,1.92
2022-08-26T01:26:23.550Z,2.03
2022-08-26T01:31:20.194Z,2.10
2022-08-26T01:33:56.689Z,1.95
2022-08-26T01:36:24.851Z,2.00
2022-08-26T01:38:53.079Z,1.85
2022-08-26T01:41:27.244Z,2.03
2022-08-26T01:43:57.259Z,2.20
2022-08-26T01:46:26.824Z,1.88
2022-08-26T01:48:55.192Z,1.90
2022-08-26T01:51:24.250Z,2.03
2022-08-26T01:53:51.647Z,2.08
2022-08-26T01:56:22.151Z,2.15
2022-08-26T01:58:54.678Z,1.80
2022-08-26T02:01:22.284Z,1.90
2022-08-26T02:03:57.008Z,1.60
2022-08-26T02:06:25.579Z,1.63
2022-08-26T02:08:54.753Z,2.00
2022-08-26T02:11:22.039Z,1.67
2022-08-26T02:13:51.590Z,2.28
2022-08-26T02:16:20.626Z,1.92
2022-08-26T02:18:48.980Z,1.85
2022-08-26T02:21:21.628Z,1.90
2022-08-26T02:23:52.495Z,1.92
2022-08-26T02:26:27.163Z,2.25
2022-08-26T02:29:02.747Z,1.67
2022-08-26T02:31:29.913Z,1.80
2022-08-26T02:34:07.582Z,1.90
2022-08-26T02:36:37.833Z,1.60
2022-08-26T02:39:08.920Z,1.58
2022-08-26T02:41:36.115Z,1.60
2022-08-26T02:44:13.135Z,1.75
2022-08-26T02:46:41.100Z,1.60
2022-08-26T02:49:09.340Z,1.80
2022-08-26T02:51:37.000Z,1.42
2022-08-26T02:54:04.807Z,1.60
2022-08-26T02:56:33.570Z,1.65
2022-08-26T02:59:02.645Z,1.90
2022-08-26T03:01:32.932Z,1.30
2022-08-26T03:04:00.850Z,1.70
2022-08-26T03:06:28.162Z,1.60
2022-08-26T03:08:56.753Z,1.67
2022-08-26T03:11:23.891Z,1.40
2022-08-26T03:13:52.928Z,1.65
2022-08-26T03:16:20.771Z,1.92
2022-08-26T03:18:52.241Z,1.70
2022-08-26T03:21:20.847Z,1.20
2022-08-26T03:23:48.638Z,1.33
2022-08-26T03:26:16.684Z,1.63
2022-08-26T03:29:02.835Z,1.98
2022-08-26T03:31:31.550Z,1.30
2022-08-26T03:33:59.745Z,1.50
2022-08-26T03:36:27.762Z,1.70
2022-08-26T03:38:55.156Z,1.80
2022-08-26T03:41:22.292Z,1.70
2022-08-26T03:43:50.777Z,1.58
2022-08-26T03:46:18.968Z,1.48
2022-08-26T03:48:46.554Z,1.52
2022-08-26T03:51:20.084Z,1.50
2022-08-26T03:53:48.520Z,1.58
2022-08-26T03:56:15.754Z,1.50
2022-08-26T03:58:44.637Z,1.80
2022-08-26T04:01:14.156Z,1.92
2022-08-26T04:04:00.040Z,1.40
2022-08-26T04:06:32.659Z,1.27
2022-08-26T04:09:01.499Z,1.73
2022-08-26T04:11:30.795Z,1.35
2022-08-26T04:14:01.742Z,1.45
2022-08-26T04:16:29.830Z,1.55
2022-08-26T04:18:57.472Z,1.27
2022-08-26T04:21:24.963Z,1.40
2022-08-26T04:23:52.460Z,1.50
2022-08-26T04:26:20.557Z,1.40
2022-08-26T04:28:48.602Z,1.60
2022-08-26T04:31:17.680Z,1.25
2022-08-26T04:33:47.113Z,1.65
2022-08-26T04:36:17.716Z,1.60
2022-08-26T04:38:48.076Z,1.30
2022-08-26T04:41:17.027Z,1.10
2022-08-26T04:43:46.532Z,1.38
2022-08-26T04:46:15.195Z,1.50
2022-08-26T04:48:43.446Z,1.70
2022-08-26T04:51:10.595Z,1.40
2022-08-26T04:53:38.512Z,1.40
2022-08-26T04:56:06.234Z,1.70
2022-08-26T04:58:34.050Z,1.40
2022-08-26T05:01:01.835Z,1.20
2022-08-26T05:03:30.611Z,1.65
2022-08-26T05:05:58.916Z,1.08
2022-08-26T05:08:26.714Z,1.02
2022-08-26T05:10:56.374Z,1.33
2022-08-26T05:13:25.138Z,1.23
2022-08-26T05:15:54.434Z,1.30
2022-08-26T05:18:23.921Z,1.23
2022-08-26T05:20:53.901Z,1.40
2022-08-26T05:23:25.612Z,1.27
2022-08-26T05:25:58.534Z,1.35
2022-08-26T05:28:26.829Z,1.25
2022-08-26T05:30:55.825Z,1.20
2022-08-26T05:33:23.438Z,1.83
2022-08-26T05:35:51.229Z,1.52
2022-08-26T05:38:21.281Z,1.73
2022-08-26T05:40:52.863Z,1.13
2022-08-26T05:43:20.599Z,1.20
2022-08-26T05:45:53.846Z,1.42
2022-08-26T05:48:22.763Z,1.42
2022-08-26T05:50:52.421Z,1.20
2022-08-26T05:53:20.957Z,1.35
2022-08-26T05:55:52.115Z,1.30
2022-08-26T05:58:20.891Z,1.40
2022-08-26T06:00:58.609Z,1.50
2022-08-26T06:03:25.834Z,1.63
2022-08-26T06:05:53.399Z,1.20
2022-08-26T06:08:21.287Z,1.23
2022-08-26T06:10:50.965Z,1.75
2022-08-26T06:13:20.042Z,1.40
2022-08-26T06:15:49.339Z,1.52
2022-08-26T06:18:18.779Z,1.45
2022-08-26T06:20:56.904Z,1.40
2022-08-26T06:23:44.431Z,1.50
2022-08-26T06:26:12.316Z,1.40
2022-08-26T06:28:39.760Z,1.30
2022-08-26T06:31:10.991Z,1.30
2022-08-26T06:33:38.086Z,1.27
2022-08-26T06:36:06.732Z,1.30
2022-08-26T06:38:33.962Z,1.60
2022-08-26T06:41:03.858Z,1.40
2022-08-26T06:43:30.879Z,1.50
2022-08-26T06:46:01.754Z,1.73
2022-08-26T06:48:31.846Z,1.83
2022-08-26T06:51:03.455Z,0.95
2022-08-26T06:53:30.610Z,1.23
2022-08-26T06:55:57.713Z,1.27
2022-08-26T06:58:25.215Z,1.17
2022-08-26T07:00:52.690Z,1.27
2022-08-26T07:03:22.278Z,1.42
2022-08-26T07:05:49.734Z,1.23
2022-08-26T07:08:22.404Z,1.23
2022-08-26T07:10:51.415Z,1.25
2022-08-26T07:13:30.555Z,1.40
2022-08-26T07:15:58.945Z,1.25
2022-08-26T07:18:30.754Z,1.33
2022-08-26T07:20:58.183Z,1.17
2022-08-26T07:23:26.731Z,1.10
2022-08-26T07:25:54.402Z,1.02
2022-08-26T07:28:22.884Z,1.05
2022-08-26T07:30:50.187Z,1.15
2022-08-26T07:33:18.222Z,1.58
2022-08-26T07:35:45.387Z,1.05
2022-08-26T07:38:13.624Z,0.90
2022-08-26T07:40:40.964Z,1.25
2022-08-26T07:43:09.839Z,1.20
2022-08-26T07:45:37.535Z,1.52
2022-08-26T07:48:05.607Z,1.17
2022-08-26T07:50:49.572Z,1.08
2022-08-26T07:53:18.193Z,1.40
2022-08-26T07:55:47.023Z,1.45
2022-08-26T07:58:14.450Z,1.20
2022-08-26T08:00:42.254Z,1.33
2022-08-26T08:03:10.595Z,1.40
2022-08-26T08:05:41.261Z,1.17
2022-08-26T08:08:27.103Z,1.48
2022-08-26T08:10:55.965Z,1.58
2022-08-26T08:13:24.315Z,1.50
2022-08-26T08:15:51.774Z,1.23
2022-08-26T08:18:20.506Z,1.20
2022-08-26T08:20:59.290Z,1.38
2022-08-26T08:23:32.758Z,1.30
2022-08-26T08:26:12.220Z,1.52
2022-08-26T08:28:40.774Z,1.65
2022-08-26T08:31:10.154Z,1.30
2022-08-26T08:33:37.382Z,1.20
2022-08-26T08:36:07.378Z,1.30
2022-08-26T08:38:36.562Z,1.40
2022-08-26T08:41:03.684Z,1.10
2022-08-26T08:43:39.769Z,1.00
2022-08-26T08:46:10.871Z,1.08
2022-08-26T08:48:39.895Z,1.00
2022-08-26T08:51:08.783Z,1.00
2022-08-26T08:53:41.649Z,0.80
2022-08-26T08:56:26.640Z,1.35
2022-08-26T08:59:00.143Z,0.85
2022-08-26T09:01:48.187Z,1.17
2022-08-26T09:04:40.518Z,1.17
2022-08-26T09:07:10.816Z,1.15
2022-08-26T09:10:00.354Z,1.40
2022-08-26T09:12:37.253Z,1.10
2022-08-26T09:15:08.918Z,1.17
2022-08-26T09:17:42.136Z,1.10
2022-08-26T09:20:18.877Z,1.20
2022-08-26T09:22:46.249Z,1.20
2022-08-26T09:25:14.785Z,1.02
2022-08-26T09:27:41.943Z,1.20
2022-08-26T09:30:11.432Z,1.00
2022-08-26T09:32:39.798Z,1.23
2022-08-26T09:35:09.336Z,1.00
2022-08-26T09:37:37.014Z,0.93
2022-08-26T09:40:20.374Z,1.00
2022-08-26T09:42:48.182Z,0.90
2022-08-26T09:45:27.678Z,1.20
2022-08-26T09:47:57.369Z,1.08
2022-08-26T09:50:33.321Z,0.88
2022-08-26T09:53:15.903Z,0.75
2022-08-26T09:55:45.196Z,0.98
2022-08-26T09:58:18.451Z,1.10
2022-08-26T10:00:57.384Z,0.90
2022-08-26T10:03:28.320Z,1.00
2022-08-26T10:06:07.654Z,1.20
2022-08-26T10:08:44.182Z,1.27
2022-08-26T10:11:24.666Z,0.82
2022-08-26T10:13:56.582Z,1.20
2022-08-26T10:16:23.791Z,0.85
2022-08-26T10:19:13.433Z,1.00
2022-08-26T10:21:43.746Z,0.98
2022-08-26T10:24:12.284Z,1.13
2022-08-26T10:26:58.506Z,1.30
2022-08-26T10:29:38.799Z,1.20
2022-08-26T10:32:13.890Z,1.17
2022-08-26T10:34:42.302Z,1.23
2022-08-26T10:37:18.686Z,1.30
2022-08-26T10:40:04.517Z,0.93
2022-08-26T10:42:37.574Z,0.98
2022-08-26T10:47:36.870Z,1.00
2022-08-26T10:50:05.624Z,1.02
2022-08-26T10:52:52.547Z,1.17
2022-08-26T10:55:29.347Z,1.27
2022-08-26T10:58:08.908Z,1.13
2022-08-26T11:01:22.841Z,0.70
2022-08-26T11:03:53.309Z,1.38
2022-08-26T11:06:23.155Z,0.93
2022-08-26T11:09:01.158Z,0.80
2022-08-26T11:11:40.502Z,0.85
2022-08-26T11:14:12.209Z,0.98
2022-08-26T11:16:43.574Z,0.95
2022-08-26T11:19:13.051Z,1.00
2022-08-26T11:21:49.491Z,0.88
2022-08-26T11:24:36.855Z,1.00
2022-08-26T11:27:04.396Z,0.90
2022-08-26T11:29:51.180Z,1.00
2022-08-26T11:32:28.103Z,0.75
2022-08-26T11:35:00.425Z,0.73
2022-08-26T11:37:33.095Z,1.20
2022-08-26T11:40:02.938Z,0.80
2022-08-26T11:42:34.826Z,0.80
2022-08-26T11:45:14.251Z,0.95
2022-08-26T11:47:42.047Z,0.88
2022-08-26T11:50:17.598Z,0.90
2022-08-26T11:52:54.253Z,1.10
2022-08-26T11:55:23.171Z,0.93
2022-08-26T11:57:52.252Z,1.10
2022-08-26T12:00:24.282Z,1.10
2022-08-26T12:02:52.443Z,0.70
2022-08-26T12:05:24.670Z,0.90
2022-08-26T12:07:54.459Z,1.13
2022-08-26T12:10:33.551Z,0.80
2022-08-26T12:13:02.253Z,1.13
2022-08-26T12:15:32.004Z,1.13
2022-08-26T12:18:00.669Z,1.00
2022-08-26T12:20:28.795Z,0.82
2022-08-26T12:22:56.703Z,0.85
2022-08-26T12:25:25.022Z,0.90
2022-08-26T12:28:03.937Z,1.17
2022-08-26T12:30:31.260Z,0.90
2022-08-26T12:33:22.146Z,0.82
2022-08-26T12:35:54.824Z,1.13
2022-08-26T12:38:24.558Z,0.77
2022-08-26T12:40:51.843Z,1.17
2022-08-26T12:43:39.364Z,0.88
2022-08-26T12:46:07.226Z,0.98
2022-08-26T12:48:36.108Z,0.95
2022-08-26T12:51:04.150Z,1.20
2022-08-26T12:53:32.941Z,1.05
2022-08-26T12:56:03.630Z,1.00
2022-08-26T12:58:35.020Z,1.20
2022-08-26T13:01:06.384Z,1.35
2022-08-26T13:03:45.797Z,0.95
2022-08-26T13:06:19.073Z,0.98
2022-08-26T13:08:53.931Z,0.73
2022-08-26T13:11:23.599Z,0.98
2022-08-26T13:13:57.145Z,0.80
2022-08-26T13:16:25.214Z,0.88
2022-08-26T13:18:55.171Z,0.90
2022-08-26T13:21:29.972Z,0.90
2022-08-26T13:24:06.336Z,0.80
2022-08-26T13:26:33.461Z,0.60
2022-08-26T13:29:01.356Z,0.68
2022-08-26T13:31:30.560Z,0.90
2022-08-26T13:33:58.084Z,0.85
2022-08-26T13:36:34.135Z,0.63
2022-08-26T13:39:01.440Z,0.88
2022-08-26T13:41:29.877Z,1.08
2022-08-26T13:43:58.191Z,0.82
2022-08-26T13:46:27.412Z,1.23
2022-08-26T13:48:54.634Z,1.08
2022-08-26T13:51:23.004Z,1.10
2022-08-26T13:53:50.856Z,1.10
2022-08-26T13:56:18.908Z,0.90
2022-08-26T13:58:46.734Z,0.80
2022-08-26T14:01:15.959Z,1.08
2022-08-26T14:03:43.779Z,0.52
2022-08-26T14:06:11.079Z,1.10
2022-08-26T14:08:39.126Z,1.10
2022-08-26T14:11:06.752Z,0.85
2022-08-26T14:13:34.425Z,0.70
2022-08-26T14:16:02.709Z,1.10
2022-08-26T14:18:33.331Z,0.77
2022-08-26T14:21:00.876Z,0.90
2022-08-26T14:23:28.160Z,1.23
2022-08-26T14:25:55.261Z,0.82
2022-08-26T14:28:22.508Z,0.98
2022-08-26T14:30:52.976Z,1.10
2022-08-26T14:33:23.097Z,1.30
2022-08-26T14:35:50.223Z,1.20
2022-08-26T14:38:17.305Z,1.10
2022-08-26T14:40:44.925Z,1.00
2022-08-26T14:43:15.145Z,1.10
2022-08-26T14:48:15.725Z,1.13
2022-08-26T14:50:42.993Z,1.00
2022-08-26T14:53:29.229Z,1.45
2022-08-26T14:55:56.352Z,1.33
2022-08-26T14:58:23.523Z,0.88
2022-08-26T15:00:50.570Z,0.90
2022-08-26T15:05:47.986Z,1.00
2022-08-26T15:08:16.060Z,1.25
2022-08-26T15:10:43.733Z,1.00
2022-08-26T15:13:10.883Z,1.17
2022-08-26T15:15:37.958Z,1.10
2022-08-26T15:18:05.976Z,1.15
2022-08-26T15:23:07.029Z,1.05
2022-08-26T15:25:35.008Z,0.98
2022-08-26T15:28:03.251Z,1.13
2022-08-26T15:30:30.364Z,1.15
2022-08-26T15:32:57.412Z,1.05
2022-08-26T15:35:24.448Z,1.27
2022-08-26T15:40:26.554Z,1.30
2022-08-26T15:43:01.248Z,1.35
2022-08-26T15:45:38.866Z,1.30
2022-08-26T15:48:05.972Z,1.30
2022-08-26T15:50:33.035Z,1.23
2022-08-26T15:53:01.302Z,1.38
2022-08-26T15:55:28.691Z,1.50
2022-08-26T15:57:56.250Z,1.33
2022-08-26T16:00:23.854Z,1.15
2022-08-26T16:02:51.089Z,1.40
2022-08-26T16:05:18.524Z,0.93
2022-08-26T16:07:45.819Z,1.40
2022-08-26T16:10:13.014Z,1.13
2022-08-26T16:12:40.144Z,1.23
2022-08-26T16:15:07.535Z,1.45
2022-08-26T16:17:35.006Z,1.10
2022-08-26T16:20:02.534Z,1.25
2022-08-26T16:22:30.822Z,1.10
2022-08-26T16:25:01.015Z,1.13
2022-08-26T16:27:28.072Z,1.05
2022-08-26T16:29:55.343Z,1.30
2022-08-26T16:32:22.595Z,1.45
2022-08-26T16:34:56.956Z,1.80
2022-08-26T16:37:24.146Z,1.48
2022-08-26T16:39:51.269Z,1.30
2022-08-26T16:42:19.063Z,1.85
2022-08-26T16:44:46.131Z,1.17
2022-08-26T16:47:14.398Z,1.13
2022-08-26T16:49:42.099Z,1.20
2022-08-26T16:52:10.462Z,1.42
2022-08-26T16:54:39.803Z,1.10
2022-08-26T16:57:07.876Z,1.20
2022-08-26T16:59:36.011Z,1.20
2022-08-26T17:02:03.187Z,1.50
2022-08-26T17:04:30.265Z,1.23
2022-08-26T17:06:57.387Z,1.30
2022-08-26T17:09:25.145Z,1.30
2022-08-26T17:11:53.086Z,1.20
2022-08-26T17:14:23.097Z,1.33
2022-08-26T17:16:53.517Z,1.20
2022-08-26T17:19:21.467Z,1.10
2022-08-26T17:21:49.205Z,1.05
2022-08-26T17:24:16.234Z,1.42
2022-08-26T17:26:48.350Z,1.40
2022-08-26T17:29:18.552Z,1.35
2022-08-26T17:31:45.868Z,1.38
2022-08-26T17:34:12.946Z,1.10
2022-08-26T17:36:40.105Z,1.10
2022-08-26T17:39:07.295Z,1.15
2022-08-26T17:41:34.369Z,1.20
2022-08-26T17:44:01.389Z,1.10
2022-08-26T17:46:28.525Z,1.20
2022-08-26T17:48:56.279Z,0.85
2022-08-26T17:51:23.793Z,1.20
2022-08-26T17:53:51.792Z,1.10
2022-08-26T17:56:21.083Z,1.17
2022-08-26T17:58:51.913Z,1.27
2022-08-26T18:01:22.425Z,1.30
2022-08-26T18:03:50.086Z,1.50
2022-08-26T18:06:17.314Z,1.60
2022-08-26T18:08:44.870Z,1.48
2022-08-26T18:11:13.173Z,1.50
2022-08-26T18:13:47.005Z,1.30
2022-08-26T18:16:15.355Z,1.40
2022-08-26T18:18:42.990Z,1.55
2022-08-26T18:21:17.763Z,1.10
2022-08-26T18:23:45.522Z,1.40
2022-08-26T18:26:17.570Z,1.50
2022-08-26T18:28:45.020Z,1.63
2022-08-26T18:31:12.149Z,1.60
2022-08-26T18:33:40.758Z,1.73
2022-08-26T18:36:08.043Z,1.52
2022-08-26T18:38:35.123Z,1.60
2022-08-26T18:41:04.469Z,1.20
2022-08-26T18:43:31.579Z,1.63
2022-08-26T18:46:03.124Z,1.80
2022-08-26T18:48:30.225Z,1.58
2022-08-26T18:51:00.140Z,1.60
2022-08-26T18:53:27.950Z,1.70
2022-08-26T18:55:54.978Z,1.88
2022-08-26T18:58:22.232Z,1.52
2022-08-26T19:00:49.967Z,1.67
2022-08-26T19:03:18.811Z,1.88
2022-08-26T19:05:46.930Z,1.50
2022-08-26T19:08:14.477Z,1.45
2022-08-26T19:10:42.082Z,2.17
2022-08-26T19:13:09.824Z,1.70
2022-08-26T19:15:44.742Z,1.60
2022-08-26T19:18:14.966Z,1.65
2022-08-26T19:20:46.547Z,1.60
2022-08-26T19:23:30.470Z,1.63
2022-08-26T19:25:58.391Z,1.65
2022-08-26T19:28:25.482Z,1.85
2022-08-26T19:30:53.372Z,1.80
2022-08-26T19:33:21.606Z,1.73
2022-08-26T19:35:48.819Z,1.52
2022-08-26T19:38:16.227Z,2.10
2022-08-26T19:40:43.655Z,1.73
2022-08-26T19:43:12.021Z,1.88
2022-08-26T19:45:39.911Z,1.75
2022-08-26T19:48:07.499Z,1.35
2022-08-26T19:50:35.149Z,1.70
2022-08-26T19:53:04.011Z,1.60
2022-08-26T19:55:31.811Z,1.60
2022-08-26T19:57:58.862Z,1.80
2022-08-26T20:00:27.023Z,1.42
2022-08-26T20:02:54.421Z,1.48
2022-08-26T20:05:23.178Z,1.50
2022-08-26T20:07:50.604Z,1.50
2022-08-26T20:10:20.270Z,1.98
2022-08-26T20:12:48.214Z,2.05
2022-08-26T20:15:16.684Z,1.55
2022-08-26T20:17:43.851Z,1.75
2022-08-26T20:20:33.656Z,1.75
2022-08-26T20:23:02.330Z,1.50
2022-08-26T20:25:29.708Z,1.83
2022-08-26T20:27:56.754Z,1.90
2022-08-26T20:30:23.998Z,1.70
2022-08-26T20:32:51.084Z,1.90
2022-08-26T20:35:18.678Z,1.52
2022-08-26T20:37:45.944Z,2.20
2022-08-26T20:40:13.973Z,1.67
2022-08-26T20:42:41.132Z,1.88
2022-08-26T20:45:08.599Z,1.88
2022-08-26T20:47:35.777Z,1.60
2022-08-26T20:50:03.572Z,1.83
2022-08-26T20:52:30.736Z,1.80
2022-08-26T20:54:58.107Z,1.65
2022-08-26T20:57:25.167Z,1.60
2022-08-26T20:59:52.331Z,1.70
2022-08-26T21:02:19.886Z,1.80
2022-08-26T21:04:47.371Z,1.60
2022-08-26T21:07:14.703Z,1.60
2022-08-26T21:09:42.160Z,2.08
2022-08-26T21:12:09.319Z,1.73
2022-08-26T21:14:36.509Z,1.60
2022-08-26T21:17:04.320Z,1.75
2022-08-26T21:19:31.352Z,1.75
2022-08-26T21:21:59.568Z,2.05
2022-08-26T21:24:26.827Z,1.60
2022-08-26T21:26:54.219Z,1.90
2022-08-26T21:29:21.963Z,1.88
2022-08-26T21:31:49.080Z,1.90
2022-08-26T21:34:17.602Z,1.80
2022-08-26T21:36:45.655Z,1.90
2022-08-26T21:39:12.747Z,1.75
2022-08-26T21:41:40.134Z,1.83
2022-08-26T21:44:07.194Z,1.60
2022-08-26T21:46:37.783Z,1.90
2022-08-26T21:49:07.749Z,1.75
2022-08-26T21:51:36.932Z,2.10
2022-08-26T21:54:10.534Z,1.50
2022-08-26T21:56:44.028Z,2.17
2022-08-26T21:59:11.742Z,1.73
2022-08-26T22:01:38.861Z,1.70
2022-08-26T22:04:06.989Z,1.92
2022-08-26T22:06:35.516Z,1.98
2022-08-26T22:09:02.583Z,1.48
2022-08-26T22:11:29.883Z,1.63
2022-08-26T22:13:57.964Z,1.67
2022-08-26T22:16:26.776Z,1.65
2022-08-26T22:18:55.322Z,1.77
2022-08-26T22:21:24.228Z,1.80
2022-08-26T22:23:51.690Z,1.90
2022-08-26T22:26:25.734Z,1.80
2022-08-26T22:28:58.514Z,1.98
2022-08-26T22:31:28.187Z,1.80
2022-08-26T22:34:06.470Z,2.10
2022-08-26T22:36:33.993Z,1.90
2022-08-26T22:39:01.526Z,1.95
2022-08-26T22:41:28.577Z,1.90
2022-08-26T22:44:02.483Z,2.20
2022-08-26T22:46:29.752Z,1.88
2022-08-26T22:48:57.079Z,2.20
2022-08-26T22:51:24.753Z,1.80
2022-08-26T22:53:52.059Z,1.80
2022-08-26T22:56:21.023Z,1.60
2022-08-26T22:58:49.666Z,1.85
2022-08-26T23:01:17.227Z,1.77
2022-08-26T23:03:46.168Z,1.75
2022-08-26T23:06:13.296Z,2.05
2022-08-26T23:08:42.000Z,2.15
2022-08-26T23:11:10.656Z,1.70
2022-08-26T23:13:38.732Z,1.80
2022-08-26T23:16:07.464Z,1.90
2022-08-26T23:18:35.189Z,2.00
2022-08-26T23:21:03.151Z,1.60
2022-08-26T23:23:31.066Z,1.70
2022-08-26T23:25:58.295Z,1.95
2022-08-26T23:28:26.295Z,1.50
2022-08-26T23:30:53.775Z,2.00
2022-08-26T23:33:21.048Z,1.77
2022-08-26T23:35:48.116Z,2.40
2022-08-26T23:38:16.584Z,1.73
2022-08-26T23:40:44.043Z,1.67
2022-08-26T23:43:11.806Z,2.05
2022-08-26T23:45:39.298Z,1.95
2022-08-26T23:48:06.845Z,1.90
2022-08-26T23:50:52.995Z,1.80
2022-08-26T23:53:22.305Z,1.98
2022-08-26T23:55:51.266Z,2.30
2022-08-26T23:58:20.017Z,2.10
